sensor_id;sensor_type;location;lat;lon;timestamp;P1;durP1;ratioP1;P2;durP2;ratioP2
4984;SDS011;2509;49.902;8.600;2023-12-14T00:01:10;62.87;;;1.40;;
4984;SDS011;2509;49.902;8.600;2023-12-14T00:04:13;63.10;;;1.30;;
4984;SDS011;2509;49.902;8.600;2023-12-14T00:07:16;63.53;;;1.60;;
4984;SDS011;2509;49.902;8.600;2023-12-14T00:10:18;63.10;;;1.30;;
4984;SDS011;2509;49.902;8.600;2023-12-14T00:13:19;63.07;;;1.30;;
4984;SDS011;2509;49.902;8.600;2023-12-14T00:16:21;63.57;;;1.40;;
4984;SDS011;2509;49.902;8.600;2023-12-14T00:19:23;63.40;;;1.30;;
4984;SDS011;2509;49.902;8.600;2023-12-14T00:22:26;63.57;;;1.50;;
4984;SDS011;2509;49.902;8.600;2023-12-14T00:25:28;64.40;;;1.57;;
4984;SDS011;2509;49.902;8.600;2023-12-14T00:28:30;79.87;;;4.30;;
4984;SDS011;2509;49.902;8.600;2023-12-14T00:31:31;76.07;;;2.67;;
4984;SDS011;2509;49.902;8.600;2023-12-14T00:34:33;65.67;;;1.63;;
4984;SDS011;2509;49.902;8.600;2023-12-14T00:37:36;62.70;;;1.50;;
4984;SDS011;2509;49.902;8.600;2023-12-14T00:40:38;62.20;;;1.30;;
4984;SDS011;2509;49.902;8.600;2023-12-14T00:43:40;61.70;;;1.30;;
4984;SDS011;2509;49.902;8.600;2023-12-14T00:46:42;61.73;;;1.20;;
4984;SDS011;2509;49.902;8.600;2023-12-14T00:49:43;61.30;;;1.30;;
4984;SDS011;2509;49.902;8.600;2023-12-14T00:52:46;61.37;;;1.30;;
4984;SDS011;2509;49.902;8.600;2023-12-14T00:55:48;61.17;;;1.20;;
4984;SDS011;2509;49.902;8.600;2023-12-14T00:58:50;61.77;;;1.30;;
4984;SDS011;2509;49.902;8.600;2023-12-14T01:01:51;64.20;;;1.50;;
4984;SDS011;2509;49.902;8.600;2023-12-14T01:04:53;64.73;;;1.60;;
4984;SDS011;2509;49.902;8.600;2023-12-14T01:07:56;63.53;;;1.40;;
4984;SDS011;2509;49.902;8.600;2023-12-14T01:10:58;62.37;;;1.30;;
4984;SDS011;2509;49.902;8.600;2023-12-14T01:14:00;63.13;;;1.40;;
4984;SDS011;2509;49.902;8.600;2023-12-14T01:17:01;61.93;;;1.30;;
4984;SDS011;2509;49.902;8.600;2023-12-14T01:20:04;61.53;;;1.20;;
4984;SDS011;2509;49.902;8.600;2023-12-14T01:23:08;61.30;;;1.30;;
4984;SDS011;2509;49.902;8.600;2023-12-14T01:26:10;61.47;;;1.23;;
4984;SDS011;2509;49.902;8.600;2023-12-14T01:29:12;61.63;;;1.50;;
4984;SDS011;2509;49.902;8.600;2023-12-14T01:32:13;61.57;;;1.40;;
4984;SDS011;2509;49.902;8.600;2023-12-14T01:35:15;61.43;;;1.40;;
4984;SDS011;2509;49.902;8.600;2023-12-14T01:38:18;61.13;;;1.30;;
4984;SDS011;2509;49.902;8.600;2023-12-14T01:41:20;60.77;;;1.30;;
4984;SDS011;2509;49.902;8.600;2023-12-14T01:44:22;60.87;;;1.20;;
4984;SDS011;2509;49.902;8.600;2023-12-14T01:47:24;61.37;;;1.20;;
4984;SDS011;2509;49.902;8.600;2023-12-14T01:50:25;63.73;;;1.40;;
4984;SDS011;2509;49.902;8.600;2023-12-14T01:53:28;62.30;;;1.80;;
4984;SDS011;2509;49.902;8.600;2023-12-14T01:56:30;61.00;;;1.40;;
4984;SDS011;2509;49.902;8.600;2023-12-14T01:59:32;58.00;;;1.53;;
4984;SDS011;2509;49.902;8.600;2023-12-14T02:02:34;41.30;;;0.70;;
4984;SDS011;2509;49.902;8.600;2023-12-14T02:05:38;42.20;;;0.60;;
4984;SDS011;2509;49.902;8.600;2023-12-14T02:08:41;41.60;;;0.70;;
4984;SDS011;2509;49.902;8.600;2023-12-14T02:11:42;41.20;;;0.70;;
4984;SDS011;2509;49.902;8.600;2023-12-14T02:14:44;41.50;;;0.70;;
4984;SDS011;2509;49.902;8.600;2023-12-14T02:17:46;40.30;;;0.70;;
4984;SDS011;2509;49.902;8.600;2023-12-14T02:20:48;41.30;;;0.70;;
4984;SDS011;2509;49.902;8.600;2023-12-14T02:23:51;42.67;;;0.70;;
4984;SDS011;2509;49.902;8.600;2023-12-14T02:26:52;45.27;;;0.70;;
4984;SDS011;2509;49.902;8.600;2023-12-14T02:29:54;42.87;;;0.80;;
4984;SDS011;2509;49.902;8.600;2023-12-14T02:32:56;44.80;;;0.70;;
4984;SDS011;2509;49.902;8.600;2023-12-14T02:35:58;50.50;;;0.90;;
4984;SDS011;2509;49.902;8.600;2023-12-14T02:39:01;50.17;;;0.90;;
4984;SDS011;2509;49.902;8.600;2023-12-14T02:42:03;49.30;;;1.10;;
4984;SDS011;2509;49.902;8.600;2023-12-14T02:45:06;49.47;;;1.10;;
4984;SDS011;2509;49.902;8.600;2023-12-14T02:48:09;43.13;;;0.80;;
4984;SDS011;2509;49.902;8.600;2023-12-14T02:51:12;44.00;;;0.80;;
4984;SDS011;2509;49.902;8.600;2023-12-14T02:54:16;45.60;;;0.70;;
4984;SDS011;2509;49.902;8.600;2023-12-14T02:57:17;41.17;;;0.80;;
4984;SDS011;2509;49.902;8.600;2023-12-14T03:00:19;42.00;;;0.70;;
4984;SDS011;2509;49.902;8.600;2023-12-14T03:03:21;44.57;;;0.90;;
4984;SDS011;2509;49.902;8.600;2023-12-14T03:06:23;41.70;;;0.90;;
4984;SDS011;2509;49.902;8.600;2023-12-14T03:09:26;40.37;;;0.70;;
4984;SDS011;2509;49.902;8.600;2023-12-14T03:12:28;42.00;;;0.80;;
4984;SDS011;2509;49.902;8.600;2023-12-14T03:15:29;39.53;;;0.70;;
4984;SDS011;2509;49.902;8.600;2023-12-14T03:18:31;40.03;;;0.70;;
4984;SDS011;2509;49.902;8.600;2023-12-14T03:21:33;38.57;;;0.70;;
4984;SDS011;2509;49.902;8.600;2023-12-14T03:24:36;37.90;;;0.70;;
4984;SDS011;2509;49.902;8.600;2023-12-14T03:27:38;37.63;;;0.70;;
4984;SDS011;2509;49.902;8.600;2023-12-14T03:30:40;37.30;;;0.60;;
4984;SDS011;2509;49.902;8.600;2023-12-14T03:33:42;37.13;;;0.70;;
4984;SDS011;2509;49.902;8.600;2023-12-14T03:36:44;34.10;;;0.60;;
4984;SDS011;2509;49.902;8.600;2023-12-14T03:39:47;38.40;;;1.23;;
4984;SDS011;2509;49.902;8.600;2023-12-14T03:42:48;39.20;;;0.70;;
4984;SDS011;2509;49.902;8.600;2023-12-14T03:45:50;42.50;;;0.80;;
4984;SDS011;2509;49.902;8.600;2023-12-14T03:48:52;37.50;;;0.70;;
4984;SDS011;2509;49.902;8.600;2023-12-14T03:51:54;39.30;;;0.70;;
4984;SDS011;2509;49.902;8.600;2023-12-14T03:54:57;38.90;;;0.70;;
4984;SDS011;2509;49.902;8.600;2023-12-14T03:57:59;36.70;;;0.60;;
4984;SDS011;2509;49.902;8.600;2023-12-14T04:01:00;37.90;;;0.60;;
4984;SDS011;2509;49.902;8.600;2023-12-14T04:04:02;37.90;;;0.60;;
4984;SDS011;2509;49.902;8.600;2023-12-14T04:07:04;36.30;;;0.70;;
4984;SDS011;2509;49.902;8.600;2023-12-14T04:10:08;38.10;;;0.70;;
4984;SDS011;2509;49.902;8.600;2023-12-14T04:13:10;36.37;;;0.60;;
4984;SDS011;2509;49.902;8.600;2023-12-14T04:16:12;36.20;;;0.70;;
4984;SDS011;2509;49.902;8.600;2023-12-14T04:19:14;34.80;;;0.50;;
4984;SDS011;2509;49.902;8.600;2023-12-14T04:22:16;33.87;;;0.50;;
4984;SDS011;2509;49.902;8.600;2023-12-14T04:25:19;33.57;;;0.60;;
4984;SDS011;2509;49.902;8.600;2023-12-14T04:28:20;37.70;;;0.70;;
4984;SDS011;2509;49.902;8.600;2023-12-14T04:31:22;30.50;;;0.50;;
4984;SDS011;2509;49.902;8.600;2023-12-14T04:34:24;30.57;;;0.60;;
4984;SDS011;2509;49.902;8.600;2023-12-14T04:37:25;32.13;;;0.50;;
4984;SDS011;2509;49.902;8.600;2023-12-14T04:40:28;33.07;;;0.60;;
4984;SDS011;2509;49.902;8.600;2023-12-14T04:43:30;32.80;;;0.70;;
4984;SDS011;2509;49.902;8.600;2023-12-14T04:46:32;35.30;;;0.60;;
4984;SDS011;2509;49.902;8.600;2023-12-14T04:49:34;33.20;;;0.50;;
4984;SDS011;2509;49.902;8.600;2023-12-14T04:52:36;31.97;;;0.70;;
4984;SDS011;2509;49.902;8.600;2023-12-14T04:55:39;45.93;;;0.80;;
4984;SDS011;2509;49.902;8.600;2023-12-14T04:58:41;45.40;;;0.70;;
4984;SDS011;2509;49.902;8.600;2023-12-14T05:01:43;38.50;;;0.70;;
4984;SDS011;2509;49.902;8.600;2023-12-14T05:04:44;34.40;;;0.50;;
4984;SDS011;2509;49.902;8.600;2023-12-14T05:07:46;38.87;;;0.77;;
4984;SDS011;2509;49.902;8.600;2023-12-14T05:10:50;41.10;;;0.73;;
4984;SDS011;2509;49.902;8.600;2023-12-14T05:13:51;40.53;;;0.70;;
4984;SDS011;2509;49.902;8.600;2023-12-14T05:16:53;41.10;;;0.70;;
4984;SDS011;2509;49.902;8.600;2023-12-14T05:19:55;43.20;;;1.00;;
4984;SDS011;2509;49.902;8.600;2023-12-14T05:22:57;38.50;;;0.70;;
4984;SDS011;2509;49.902;8.600;2023-12-14T05:26:00;38.40;;;0.60;;
4984;SDS011;2509;49.902;8.600;2023-12-14T05:29:01;42.37;;;0.70;;
4984;SDS011;2509;49.902;8.600;2023-12-14T05:32:03;44.97;;;0.70;;
4984;SDS011;2509;49.902;8.600;2023-12-14T05:35:06;44.77;;;0.70;;
4984;SDS011;2509;49.902;8.600;2023-12-14T05:38:09;46.63;;;0.70;;
4984;SDS011;2509;49.902;8.600;2023-12-14T05:41:12;46.80;;;0.80;;
4984;SDS011;2509;49.902;8.600;2023-12-14T05:44:14;47.50;;;1.00;;
4984;SDS011;2509;49.902;8.600;2023-12-14T05:47:16;46.97;;;1.17;;
4984;SDS011;2509;49.902;8.600;2023-12-14T05:50:18;48.80;;;0.70;;
4984;SDS011;2509;49.902;8.600;2023-12-14T05:53:19;49.83;;;0.80;;
4984;SDS011;2509;49.902;8.600;2023-12-14T05:56:22;49.47;;;0.80;;
4984;SDS011;2509;49.902;8.600;2023-12-14T05:59:24;51.10;;;0.80;;
4984;SDS011;2509;49.902;8.600;2023-12-14T06:02:26;50.60;;;0.90;;
4984;SDS011;2509;49.902;8.600;2023-12-14T06:05:28;48.40;;;0.80;;
4984;SDS011;2509;49.902;8.600;2023-12-14T06:08:30;47.87;;;0.80;;
4984;SDS011;2509;49.902;8.600;2023-12-14T06:11:33;48.87;;;0.80;;
4984;SDS011;2509;49.902;8.600;2023-12-14T06:14:36;48.70;;;0.90;;
4984;SDS011;2509;49.902;8.600;2023-12-14T06:17:38;47.13;;;1.93;;
4984;SDS011;2509;49.902;8.600;2023-12-14T06:20:42;47.73;;;0.80;;
4984;SDS011;2509;49.902;8.600;2023-12-14T06:23:44;46.27;;;0.80;;
4984;SDS011;2509;49.902;8.600;2023-12-14T06:26:47;50.13;;;0.80;;
4984;SDS011;2509;49.902;8.600;2023-12-14T06:29:49;48.30;;;0.80;;
4984;SDS011;2509;49.902;8.600;2023-12-14T06:32:51;48.67;;;1.10;;
4984;SDS011;2509;49.902;8.600;2023-12-14T06:35:53;46.17;;;0.67;;
4984;SDS011;2509;49.902;8.600;2023-12-14T06:38:54;48.03;;;1.63;;
4984;SDS011;2509;49.902;8.600;2023-12-14T06:41:58;49.17;;;0.70;;
4984;SDS011;2509;49.902;8.600;2023-12-14T06:45:01;39.30;;;0.60;;
4984;SDS011;2509;49.902;8.600;2023-12-14T06:48:04;38.67;;;0.60;;
4984;SDS011;2509;49.902;8.600;2023-12-14T06:51:06;37.10;;;0.50;;
4984;SDS011;2509;49.902;8.600;2023-12-14T06:54:08;37.70;;;0.60;;
4984;SDS011;2509;49.902;8.600;2023-12-14T06:57:11;37.97;;;0.60;;
4984;SDS011;2509;49.902;8.600;2023-12-14T07:00:13;37.30;;;0.70;;
4984;SDS011;2509;49.902;8.600;2023-12-14T07:03:15;39.20;;;0.60;;
4984;SDS011;2509;49.902;8.600;2023-12-14T07:06:17;38.03;;;0.60;;
4984;SDS011;2509;49.902;8.600;2023-12-14T07:09:21;40.60;;;0.60;;
4984;SDS011;2509;49.902;8.600;2023-12-14T07:12:24;40.27;;;0.67;;
4984;SDS011;2509;49.902;8.600;2023-12-14T07:15:25;40.07;;;0.50;;
4984;SDS011;2509;49.902;8.600;2023-12-14T07:18:27;42.23;;;0.60;;
4984;SDS011;2509;49.902;8.600;2023-12-14T07:21:29;43.57;;;0.70;;
4984;SDS011;2509;49.902;8.600;2023-12-14T07:24:30;43.77;;;0.80;;
4984;SDS011;2509;49.902;8.600;2023-12-14T07:27:34;44.23;;;0.70;;
4984;SDS011;2509;49.902;8.600;2023-12-14T07:30:35;45.47;;;0.70;;
4984;SDS011;2509;49.902;8.600;2023-12-14T07:33:37;47.80;;;0.70;;
4984;SDS011;2509;49.902;8.600;2023-12-14T07:36:39;46.67;;;0.70;;
4984;SDS011;2509;49.902;8.600;2023-12-14T07:39:41;49.10;;;1.77;;
4984;SDS011;2509;49.902;8.600;2023-12-14T07:42:44;64.87;;;4.17;;
4984;SDS011;2509;49.902;8.600;2023-12-14T07:45:45;63.60;;;1.50;;
4984;SDS011;2509;49.902;8.600;2023-12-14T07:48:48;54.60;;;1.00;;
4984;SDS011;2509;49.902;8.600;2023-12-14T07:51:50;58.37;;;1.30;;
4984;SDS011;2509;49.902;8.600;2023-12-14T07:54:51;58.10;;;1.00;;
4984;SDS011;2509;49.902;8.600;2023-12-14T07:57:54;65.60;;;1.57;;
4984;SDS011;2509;49.902;8.600;2023-12-14T08:00:56;73.87;;;2.80;;
4984;SDS011;2509;49.902;8.600;2023-12-14T08:03:58;97.40;;;41.13;;
4984;SDS011;2509;49.902;8.600;2023-12-14T08:06:59;358.50;;;301.53;;
4984;SDS011;2509;49.902;8.600;2023-12-14T08:10:01;80.60;;;12.93;;
4984;SDS011;2509;49.902;8.600;2023-12-14T08:13:05;69.93;;;2.10;;
4984;SDS011;2509;49.902;8.600;2023-12-14T08:16:07;67.60;;;1.90;;
4984;SDS011;2509;49.902;8.600;2023-12-14T08:19:11;67.90;;;1.80;;
4984;SDS011;2509;49.902;8.600;2023-12-14T08:22:13;67.97;;;1.60;;
4984;SDS011;2509;49.902;8.600;2023-12-14T08:25:15;248.87;;;224.27;;
4984;SDS011;2509;49.902;8.600;2023-12-14T08:28:19;65.53;;;1.57;;
4984;SDS011;2509;49.902;8.600;2023-12-14T08:31:21;66.87;;;1.70;;
4984;SDS011;2509;49.902;8.600;2023-12-14T08:34:23;66.10;;;1.40;;
4984;SDS011;2509;49.902;8.600;2023-12-14T08:37:24;67.03;;;4.50;;
4984;SDS011;2509;49.902;8.600;2023-12-14T08:40:26;66.50;;;1.60;;
4984;SDS011;2509;49.902;8.600;2023-12-14T08:43:30;66.27;;;1.50;;
4984;SDS011;2509;49.902;8.600;2023-12-14T08:46:38;67.37;;;1.70;;
4984;SDS011;2509;49.902;8.600;2023-12-14T08:49:40;71.53;;;12.90;;
4984;SDS011;2509;49.902;8.600;2023-12-14T08:52:42;65.30;;;1.40;;
4984;SDS011;2509;49.902;8.600;2023-12-14T08:55:43;67.80;;;1.80;;
4984;SDS011;2509;49.902;8.600;2023-12-14T08:58:46;64.07;;;1.60;;
4984;SDS011;2509;49.902;8.600;2023-12-14T09:01:48;66.07;;;1.30;;
4984;SDS011;2509;49.902;8.600;2023-12-14T09:04:50;66.00;;;1.50;;
4984;SDS011;2509;49.902;8.600;2023-12-14T09:07:52;65.50;;;1.43;;
4984;SDS011;2509;49.902;8.600;2023-12-14T09:10:56;72.20;;;2.00;;
4984;SDS011;2509;49.902;8.600;2023-12-14T09:13:59;71.13;;;2.00;;
4984;SDS011;2509;49.902;8.600;2023-12-14T09:17:00;184.83;;;168.73;;
4984;SDS011;2509;49.902;8.600;2023-12-14T09:20:03;64.90;;;3.10;;
4984;SDS011;2509;49.902;8.600;2023-12-14T09:23:05;71.13;;;12.13;;
4984;SDS011;2509;49.902;8.600;2023-12-14T09:26:07;67.93;;;12.00;;
4984;SDS011;2509;49.902;8.600;2023-12-14T09:29:10;66.87;;;1.97;;
4984;SDS011;2509;49.902;8.600;2023-12-14T09:32:12;110.70;;;62.57;;
4984;SDS011;2509;49.902;8.600;2023-12-14T09:35:13;238.67;;;218.30;;
4984;SDS011;2509;49.902;8.600;2023-12-14T09:38:15;62.37;;;1.50;;
4984;SDS011;2509;49.902;8.600;2023-12-14T09:41:19;62.37;;;1.50;;
4984;SDS011;2509;49.902;8.600;2023-12-14T09:44:22;79.47;;;14.20;;
4984;SDS011;2509;49.902;8.600;2023-12-14T09:47:24;62.27;;;1.40;;
4984;SDS011;2509;49.902;8.600;2023-12-14T09:50:26;62.80;;;1.60;;
4984;SDS011;2509;49.902;8.600;2023-12-14T09:53:28;61.20;;;1.63;;
4984;SDS011;2509;49.902;8.600;2023-12-14T09:56:30;96.43;;;9.10;;
4984;SDS011;2509;49.902;8.600;2023-12-14T09:59:33;263.50;;;240.20;;
4984;SDS011;2509;49.902;8.600;2023-12-14T10:02:35;1165.37;;;999.90;;
4984;SDS011;2509;49.902;8.600;2023-12-14T10:05:37;704.20;;;656.93;;
4984;SDS011;2509;49.902;8.600;2023-12-14T10:08:40;1170.37;;;999.90;;
4984;SDS011;2509;49.902;8.600;2023-12-14T10:11:42;2266.67;;;999.90;;
4984;SDS011;2509;49.902;8.600;2023-12-14T10:14:46;1523.07;;;687.77;;
4984;SDS011;2509;49.902;8.600;2023-12-14T10:17:50;2266.67;;;999.90;;
4984;SDS011;2509;49.902;8.600;2023-12-14T10:20:54;2266.67;;;999.90;;
4984;SDS011;2509;49.902;8.600;2023-12-14T10:23:56;2266.67;;;999.90;;
4984;SDS011;2509;49.902;8.600;2023-12-14T10:26:58;951.30;;;867.50;;
4984;SDS011;2509;49.902;8.600;2023-12-14T10:30:05;61.10;;;2.77;;
4984;SDS011;2509;49.902;8.600;2023-12-14T10:33:08;2266.67;;;999.90;;
4984;SDS011;2509;49.902;8.600;2023-12-14T10:36:10;62.97;;;2.10;;
4984;SDS011;2509;49.902;8.600;2023-12-14T10:39:12;105.57;;;67.80;;
4984;SDS011;2509;49.902;8.600;2023-12-14T10:42:15;48.60;;;1.50;;
4984;SDS011;2509;49.902;8.600;2023-12-14T10:45:20;132.47;;;98.63;;
4984;SDS011;2509;49.902;8.600;2023-12-14T10:48:26;75.10;;;2.77;;
4984;SDS011;2509;49.902;8.600;2023-12-14T10:51:30;101.20;;;13.50;;
4984;SDS011;2509;49.902;8.600;2023-12-14T10:54:34;108.53;;;23.27;;
4984;SDS011;2509;49.902;8.600;2023-12-14T10:57:38;111.07;;;14.47;;
4984;SDS011;2509;49.902;8.600;2023-12-14T11:00:41;124.53;;;23.90;;
4984;SDS011;2509;49.902;8.600;2023-12-14T11:03:45;155.73;;;59.17;;
4984;SDS011;2509;49.902;8.600;2023-12-14T11:06:48;142.70;;;40.50;;
4984;SDS011;2509;49.902;8.600;2023-12-14T11:09:50;117.70;;;19.67;;
4984;SDS011;2509;49.902;8.600;2023-12-14T11:13:00;140.53;;;39.63;;
4984;SDS011;2509;49.902;8.600;2023-12-14T11:16:04;2266.67;;;999.90;;
4984;SDS011;2509;49.902;8.600;2023-12-14T11:19:23;2266.67;;;999.90;;
4984;SDS011;2509;49.902;8.600;2023-12-14T11:22:27;2266.67;;;999.90;;
4984;SDS011;2509;49.902;8.600;2023-12-14T11:25:29;2266.67;;;999.90;;
4984;SDS011;2509;49.902;8.600;2023-12-14T11:28:32;2266.67;;;999.90;;
4984;SDS011;2509;49.902;8.600;2023-12-14T11:31:36;2266.67;;;999.90;;
4984;SDS011;2509;49.902;8.600;2023-12-14T11:34:38;2266.67;;;999.90;;
4984;SDS011;2509;49.902;8.600;2023-12-14T11:37:40;2266.67;;;999.90;;
4984;SDS011;2509;49.902;8.600;2023-12-14T11:40:42;2266.67;;;999.90;;
4984;SDS011;2509;49.902;8.600;2023-12-14T11:43:44;2266.67;;;999.90;;
4984;SDS011;2509;49.902;8.600;2023-12-14T11:46:47;2266.67;;;999.90;;
4984;SDS011;2509;49.902;8.600;2023-12-14T11:49:49;2266.67;;;999.90;;
4984;SDS011;2509;49.902;8.600;2023-12-14T11:52:51;2266.67;;;999.90;;
4984;SDS011;2509;49.902;8.600;2023-12-14T11:55:53;2266.67;;;999.90;;
4984;SDS011;2509;49.902;8.600;2023-12-14T11:58:55;2266.67;;;999.90;;
4984;SDS011;2509;49.902;8.600;2023-12-14T12:01:58;2266.67;;;999.90;;
4984;SDS011;2509;49.902;8.600;2023-12-14T12:05:02;2266.67;;;999.90;;
4984;SDS011;2509;49.902;8.600;2023-12-14T12:08:04;2266.67;;;999.90;;
4984;SDS011;2509;49.902;8.600;2023-12-14T12:11:06;2266.67;;;999.90;;
4984;SDS011;2509;49.902;8.600;2023-12-14T12:14:08;2266.67;;;999.90;;
4984;SDS011;2509;49.902;8.600;2023-12-14T12:17:13;2266.67;;;999.90;;
4984;SDS011;2509;49.902;8.600;2023-12-14T12:20:15;2266.67;;;999.90;;
4984;SDS011;2509;49.902;8.600;2023-12-14T12:23:19;2266.67;;;999.90;;
4984;SDS011;2509;49.902;8.600;2023-12-14T12:26:21;2266.67;;;999.90;;
4984;SDS011;2509;49.902;8.600;2023-12-14T12:29:22;2266.67;;;999.90;;
4984;SDS011;2509;49.902;8.600;2023-12-14T12:32:25;2266.67;;;999.90;;
4984;SDS011;2509;49.902;8.600;2023-12-14T12:35:27;2266.67;;;999.90;;
4984;SDS011;2509;49.902;8.600;2023-12-14T12:38:30;2266.67;;;999.90;;
4984;SDS011;2509;49.902;8.600;2023-12-14T12:41:32;2266.67;;;999.90;;
4984;SDS011;2509;49.902;8.600;2023-12-14T12:44:34;2266.67;;;999.90;;
4984;SDS011;2509;49.902;8.600;2023-12-14T12:47:37;2266.67;;;999.90;;
4984;SDS011;2509;49.902;8.600;2023-12-14T12:50:39;2266.67;;;999.90;;
4984;SDS011;2509;49.902;8.600;2023-12-14T12:53:40;2266.67;;;999.90;;
4984;SDS011;2509;49.902;8.600;2023-12-14T12:56:42;2266.67;;;999.90;;
4984;SDS011;2509;49.902;8.600;2023-12-14T12:59:44;2266.67;;;999.90;;
4984;SDS011;2509;49.902;8.600;2023-12-14T13:02:47;2266.67;;;999.90;;
4984;SDS011;2509;49.902;8.600;2023-12-14T13:05:48;2266.67;;;999.90;;
4984;SDS011;2509;49.902;8.600;2023-12-14T13:08:50;2266.67;;;999.90;;
4984;SDS011;2509;49.902;8.600;2023-12-14T13:11:52;2266.67;;;999.90;;
4984;SDS011;2509;49.902;8.600;2023-12-14T13:14:54;2266.67;;;999.90;;
4984;SDS011;2509;49.902;8.600;2023-12-14T13:17:57;2266.67;;;999.90;;
4984;SDS011;2509;49.902;8.600;2023-12-14T13:20:59;2266.67;;;999.90;;
4984;SDS011;2509;49.902;8.600;2023-12-14T13:24:01;2266.67;;;999.90;;
4984;SDS011;2509;49.902;8.600;2023-12-14T13:27:04;2266.67;;;999.90;;
4984;SDS011;2509;49.902;8.600;2023-12-14T13:30:06;2266.67;;;999.90;;
4984;SDS011;2509;49.902;8.600;2023-12-14T13:33:10;2266.67;;;999.90;;
4984;SDS011;2509;49.902;8.600;2023-12-14T13:36:12;2266.67;;;999.90;;
4984;SDS011;2509;49.902;8.600;2023-12-14T13:39:15;2266.67;;;999.90;;
4984;SDS011;2509;49.902;8.600;2023-12-14T13:42:17;95.10;;;7.10;;
4984;SDS011;2509;49.902;8.600;2023-12-14T13:45:19;112.13;;;14.67;;
4984;SDS011;2509;49.902;8.600;2023-12-14T13:48:22;117.87;;;18.70;;
4984;SDS011;2509;49.902;8.600;2023-12-14T13:51:24;117.07;;;19.00;;
4984;SDS011;2509;49.902;8.600;2023-12-14T13:54:26;128.87;;;27.73;;
4984;SDS011;2509;49.902;8.600;2023-12-14T13:57:28;139.43;;;36.97;;
4984;SDS011;2509;49.902;8.600;2023-12-14T14:00:29;142.67;;;40.13;;
4984;SDS011;2509;49.902;8.600;2023-12-14T14:03:34;141.77;;;39.20;;
4984;SDS011;2509;49.902;8.600;2023-12-14T14:06:37;141.57;;;37.97;;
4984;SDS011;2509;49.902;8.600;2023-12-14T14:09:39;141.17;;;38.90;;
4984;SDS011;2509;49.902;8.600;2023-12-14T14:12:42;141.87;;;38.50;;
4984;SDS011;2509;49.902;8.600;2023-12-14T14:15:44;141.33;;;38.00;;
4984;SDS011;2509;49.902;8.600;2023-12-14T14:18:48;141.30;;;38.00;;
4984;SDS011;2509;49.902;8.600;2023-12-14T14:21:49;142.00;;;39.63;;
4984;SDS011;2509;49.902;8.600;2023-12-14T14:24:51;145.30;;;42.60;;
4984;SDS011;2509;49.902;8.600;2023-12-14T14:27:53;145.90;;;42.50;;
4984;SDS011;2509;49.902;8.600;2023-12-14T14:30:55;148.80;;;45.83;;
4984;SDS011;2509;49.902;8.600;2023-12-14T14:33:58;2266.67;;;999.90;;
4984;SDS011;2509;49.902;8.600;2023-12-14T14:37:00;2266.67;;;999.90;;
4984;SDS011;2509;49.902;8.600;2023-12-14T14:40:02;2266.67;;;999.90;;
4984;SDS011;2509;49.902;8.600;2023-12-14T14:43:04;2266.67;;;999.90;;
4984;SDS011;2509;49.902;8.600;2023-12-14T14:46:06;2266.67;;;999.90;;
4984;SDS011;2509;49.902;8.600;2023-12-14T14:49:09;2266.67;;;999.90;;
4984;SDS011;2509;49.902;8.600;2023-12-14T14:52:11;2266.67;;;999.90;;
4984;SDS011;2509;49.902;8.600;2023-12-14T14:55:13;2266.67;;;999.90;;
4984;SDS011;2509;49.902;8.600;2023-12-14T14:58:15;2266.67;;;999.90;;
4984;SDS011;2509;49.902;8.600;2023-12-14T15:01:16;2266.67;;;999.90;;
4984;SDS011;2509;49.902;8.600;2023-12-14T15:04:20;2266.67;;;999.90;;
4984;SDS011;2509;49.902;8.600;2023-12-14T15:07:22;2266.67;;;999.90;;
4984;SDS011;2509;49.902;8.600;2023-12-14T15:10:23;2266.67;;;999.90;;
4984;SDS011;2509;49.902;8.600;2023-12-14T15:13:25;2266.67;;;999.90;;
4984;SDS011;2509;49.902;8.600;2023-12-14T15:16:29;2266.67;;;999.90;;
4984;SDS011;2509;49.902;8.600;2023-12-14T15:19:32;2266.67;;;999.90;;
4984;SDS011;2509;49.902;8.600;2023-12-14T15:22:34;2266.67;;;999.90;;
4984;SDS011;2509;49.902;8.600;2023-12-14T15:25:36;2266.67;;;999.90;;
4984;SDS011;2509;49.902;8.600;2023-12-14T15:28:38;2266.67;;;999.90;;
4984;SDS011;2509;49.902;8.600;2023-12-14T15:31:40;2266.67;;;999.90;;
4984;SDS011;2509;49.902;8.600;2023-12-14T15:34:43;2266.67;;;999.90;;
4984;SDS011;2509;49.902;8.600;2023-12-14T15:37:45;2266.67;;;999.90;;
4984;SDS011;2509;49.902;8.600;2023-12-14T15:40:47;2266.67;;;999.90;;
4984;SDS011;2509;49.902;8.600;2023-12-14T15:43:49;2266.67;;;999.90;;
4984;SDS011;2509;49.902;8.600;2023-12-14T15:46:50;2266.67;;;999.90;;
4984;SDS011;2509;49.902;8.600;2023-12-14T15:49:53;2266.67;;;999.90;;
4984;SDS011;2509;49.902;8.600;2023-12-14T15:52:55;2266.67;;;999.90;;
4984;SDS011;2509;49.902;8.600;2023-12-14T15:55:57;2266.67;;;999.90;;
4984;SDS011;2509;49.902;8.600;2023-12-14T15:58:59;2266.67;;;999.90;;
4984;SDS011;2509;49.902;8.600;2023-12-14T16:02:01;2266.67;;;999.90;;
4984;SDS011;2509;49.902;8.600;2023-12-14T16:05:04;2266.67;;;999.90;;
4984;SDS011;2509;49.902;8.600;2023-12-14T16:08:08;2266.67;;;999.90;;
4984;SDS011;2509;49.902;8.600;2023-12-14T16:11:10;2266.67;;;999.90;;
4984;SDS011;2509;49.902;8.600;2023-12-14T16:14:13;2266.67;;;999.90;;
4984;SDS011;2509;49.902;8.600;2023-12-14T16:17:15;2266.67;;;999.90;;
4984;SDS011;2509;49.902;8.600;2023-12-14T16:20:19;2266.67;;;999.90;;
4984;SDS011;2509;49.902;8.600;2023-12-14T16:23:22;2266.67;;;999.90;;
4984;SDS011;2509;49.902;8.600;2023-12-14T16:26:24;2266.67;;;999.90;;
4984;SDS011;2509;49.902;8.600;2023-12-14T16:29:26;2266.67;;;999.90;;
4984;SDS011;2509;49.902;8.600;2023-12-14T16:32:28;2266.67;;;999.90;;
4984;SDS011;2509;49.902;8.600;2023-12-14T16:35:31;2266.67;;;999.90;;
4984;SDS011;2509;49.902;8.600;2023-12-14T16:38:33;2266.67;;;999.90;;
4984;SDS011;2509;49.902;8.600;2023-12-14T16:41:35;2266.67;;;999.90;;
4984;SDS011;2509;49.902;8.600;2023-12-14T16:44:37;2266.67;;;999.90;;
4984;SDS011;2509;49.902;8.600;2023-12-14T16:47:40;2266.67;;;999.90;;
4984;SDS011;2509;49.902;8.600;2023-12-14T16:50:43;2266.67;;;999.90;;
4984;SDS011;2509;49.902;8.600;2023-12-14T16:53:46;2266.67;;;999.90;;
4984;SDS011;2509;49.902;8.600;2023-12-14T16:56:48;2266.67;;;999.90;;
4984;SDS011;2509;49.902;8.600;2023-12-14T16:59:49;2266.67;;;999.90;;
4984;SDS011;2509;49.902;8.600;2023-12-14T17:02:53;2266.67;;;999.90;;
4984;SDS011;2509;49.902;8.600;2023-12-14T17:05:56;2266.67;;;999.90;;
4984;SDS011;2509;49.902;8.600;2023-12-14T17:08:58;2266.67;;;999.90;;
4984;SDS011;2509;49.902;8.600;2023-12-14T17:12:00;2266.67;;;999.90;;
4984;SDS011;2509;49.902;8.600;2023-12-14T17:15:02;2266.67;;;999.90;;
4984;SDS011;2509;49.902;8.600;2023-12-14T17:18:05;2266.67;;;999.90;;
4984;SDS011;2509;49.902;8.600;2023-12-14T17:21:16;2266.67;;;999.90;;
4984;SDS011;2509;49.902;8.600;2023-12-14T17:24:18;2266.67;;;999.90;;
4984;SDS011;2509;49.902;8.600;2023-12-14T17:27:20;2266.67;;;999.90;;
4984;SDS011;2509;49.902;8.600;2023-12-14T17:30:22;2266.67;;;999.90;;
4984;SDS011;2509;49.902;8.600;2023-12-14T17:33:24;2266.67;;;999.90;;
4984;SDS011;2509;49.902;8.600;2023-12-14T17:36:27;2266.67;;;999.90;;
4984;SDS011;2509;49.902;8.600;2023-12-14T17:39:29;2266.67;;;999.90;;
4984;SDS011;2509;49.902;8.600;2023-12-14T17:42:30;2266.67;;;999.90;;
4984;SDS011;2509;49.902;8.600;2023-12-14T17:45:32;2266.67;;;999.90;;
4984;SDS011;2509;49.902;8.600;2023-12-14T17:48:34;2266.67;;;999.90;;
4984;SDS011;2509;49.902;8.600;2023-12-14T17:51:39;2266.67;;;999.90;;
4984;SDS011;2509;49.902;8.600;2023-12-14T17:54:42;11.87;;;2.80;;
4984;SDS011;2509;49.902;8.600;2023-12-14T17:57:44;95.83;;;12.13;;
4984;SDS011;2509;49.902;8.600;2023-12-14T18:00:46;59.40;;;1.00;;
4984;SDS011;2509;49.902;8.600;2023-12-14T18:03:47;117.50;;;64.87;;
4984;SDS011;2509;49.902;8.600;2023-12-14T18:06:50;75.57;;;3.93;;
4984;SDS011;2509;49.902;8.600;2023-12-14T18:09:52;4.60;;;3.03;;